Teesside, United Kingdom

9:05 AM BST on June 02, 2015 (GMT +0100)
Oak Tree | | Change Station
CLOSE
Current Station
Personal Weather Station
Location: Middleton Saint George,
Elevation: 125 ft
Nearby Weather Stations

Elev 125 ft 54.52 °N, 1.44 °W | Updated 5 minutes ago

Partly Cloudy
Partly Cloudy
55.8 °F
Feels Like 55.8 °F
N
10.7
Wind Variable Wind from South
Gusts 33.6 mph

Today
High -- | Low -- °F
--% Chance of Precip.
Yesterday
High -- | Low -- °F
Precip. -- in
4:36 AM 9:31 PM
Full, 100% visible
Pressure 29.30 in
Visibility 6.2 miles
Clouds Few 3600 ft
Dew Point 38 °F
Humidity 52%
Rainfall 0.57 in
Snow Depth Not available.
UV 5.0 out of 12
Pollen Not available.
Air Quality Not available.
Flu Activity Not available.
METAR EGNV 020750Z 24028G38KT 9999 FEW036 11/02 Q0992

More Conditions Fewer Conditions

Pressure 29.30 in
Visibility 6.2 miles
Clouds Few 3600 ft
Dew Point 38 °F
Humidity 52%
Rainfall 0.57 in
Snow Depth Not available.
UV 5.0 out of 12
Pollen Not available.
Air Quality Not available.
Flu Activity Not available.
METAR EGNV 020750Z 24028G38KT 9999 FEW036 11/02 Q0992

More Conditions Fewer Conditions

10-Day Weather Forecast

Almanac

Astronomy

Jun. 02, 2015 Rise Set
Actual Time
Civil Twilight
Nautical Twilight
Astronomical Twilight
Moon
Length of Visible Light
Length of Day
Tomorrow will be .
, % of the Moon is Illuminated

Today's Extremes

Country Highs Country Lows

Community

WunderPhotos

Upload Photos

1,825,895 photos uploaded!

WunderBlogs® & News

Nearby

Air Quality

  Air Quality AQ Index Pollutant
Not available.

Snow Depth

Station Depth Elevation

Earthquake Activity

City Distance Mag. Time & Date
Minimum magnitude displayed is 2.5.

Coastal Water Temperatures

Place Temperature

Stations

Nearby Weather Stations

Station Location Temp. Windchill Dew Point Humidity Wind Precip. Elev Updated Type